createdAt,value
2023-04-09T00:01:12.856Z,13.63
2023-04-09T00:06:34.062Z,16.95
2023-04-09T00:11:36.954Z,16.10
2023-04-09T00:16:40.809Z,15.30
2023-04-09T00:21:43.722Z,10.25
2023-04-09T00:27:04.735Z,11.02
2023-04-09T00:32:07.887Z,10.25
2023-04-09T00:37:11.019Z,12.13
2023-04-09T00:42:13.971Z,10.60
2023-04-09T00:47:17.515Z,10.68
2023-04-09T00:52:20.599Z,10.32
2023-04-09T00:57:23.598Z,10.43
2023-04-09T01:02:27.025Z,10.05
2023-04-09T01:07:55.003Z,10.07
2023-04-09T01:13:07.652Z,10.63
2023-04-09T01:18:19.375Z,10.25
2023-04-09T01:23:53.110Z,10.25
2023-04-09T01:28:57.860Z,10.38
2023-04-09T01:34:02.138Z,10.25
2023-04-09T01:39:06.398Z,10.45
2023-04-09T01:49:13.685Z,11.85
2023-04-09T01:54:17.304Z,11.63
2023-04-09T01:59:20.180Z,10.27
2023-04-09T02:04:33.189Z,11.23
2023-04-09T02:09:39.513Z,10.55
2023-04-09T02:14:46.359Z,10.88
2023-04-09T02:19:49.373Z,11.07
2023-04-09T02:24:52.189Z,11.10
2023-04-09T02:29:55.013Z,10.77
2023-04-09T02:34:57.791Z,11.05
2023-04-09T02:40:19.719Z,13.15
2023-04-09T02:45:22.729Z,19.85
2023-04-09T02:50:27.364Z,22.17
2023-04-09T02:55:31.874Z,23.83
2023-04-09T03:00:34.913Z,22.40
2023-04-09T03:05:38.283Z,23.00
2023-04-09T03:10:41.762Z,23.67
2023-04-09T03:15:45.417Z,23.55
2023-04-09T03:20:48.453Z,21.13
2023-04-09T03:26:01.485Z,19.10
2023-04-09T03:31:07.889Z,19.70
2023-04-09T03:36:13.570Z,19.65
2023-04-09T03:41:34.027Z,18.10
2023-04-09T03:46:40.873Z,18.90
2023-04-09T03:51:45.858Z,18.98
2023-04-09T03:56:49.328Z,19.90
2023-04-09T04:01:57.188Z,18.95
2023-04-09T04:07:00.900Z,16.63
2023-04-09T04:12:11.713Z,16.38
2023-04-09T04:17:29.362Z,17.65
2023-04-09T04:22:35.100Z,16.52
2023-04-09T04:27:43.452Z,15.52
2023-04-09T04:32:49.013Z,12.38
2023-04-09T04:37:53.522Z,10.77
2023-04-09T04:42:58.202Z,10.85
2023-04-09T04:48:01.425Z,11.45
2023-04-09T04:53:04.798Z,12.10
2023-04-09T04:58:13.920Z,12.20
2023-04-09T05:03:22.630Z,13.52
2023-04-09T05:08:42.512Z,13.25
2023-04-09T05:13:45.612Z,14.45
2023-04-09T05:18:49.865Z,14.48
2023-04-09T05:23:53.074Z,14.18
2023-04-09T05:28:56.593Z,14.50
2023-04-09T05:34:00.612Z,14.13
2023-04-09T05:39:17.130Z,12.20
2023-04-09T05:44:21.079Z,11.35
2023-04-09T05:49:26.014Z,10.65
2023-04-09T05:54:31.896Z,10.55
2023-04-09T05:59:35.367Z,11.80
2023-04-09T06:04:38.492Z,8.25
2023-04-09T06:09:41.641Z,7.53
2023-04-09T06:14:44.590Z,7.28
2023-04-09T06:19:47.349Z,6.70
2023-04-09T06:24:50.187Z,6.18
2023-04-09T06:29:53.181Z,8.85
2023-04-09T06:34:56.104Z,7.07
2023-04-09T06:40:01.408Z,4.28
2023-04-09T06:45:08.883Z,4.93
2023-04-09T06:50:11.956Z,5.00
2023-04-09T06:55:14.857Z,4.45
2023-04-09T07:00:18.033Z,4.70
2023-04-09T07:05:20.779Z,4.82
2023-04-09T07:10:23.668Z,4.80
2023-04-09T07:15:26.577Z,4.05
2023-04-09T07:20:29.610Z,4.60
2023-04-09T07:25:32.636Z,4.63
2023-04-09T07:30:35.766Z,4.82
2023-04-09T07:35:38.917Z,4.80
2023-04-09T07:40:42.354Z,4.78
2023-04-09T07:50:48.745Z,3.92
2023-04-09T07:55:52.101Z,4.32
2023-04-09T08:00:54.857Z,4.15
2023-04-09T08:05:57.896Z,3.83
2023-04-09T08:11:00.903Z,3.97
2023-04-09T08:16:04.201Z,4.50
2023-04-09T08:21:07.083Z,4.13
2023-04-09T08:26:10.063Z,4.40
2023-04-09T08:31:31.568Z,3.80
2023-04-09T08:36:36.066Z,4.10
2023-04-09T08:42:02.026Z,4.20
2023-04-09T08:47:10.441Z,3.63
2023-04-09T08:52:13.308Z,4.25
2023-04-09T08:57:16.573Z,4.20
2023-04-09T09:02:19.534Z,4.20
2023-04-09T09:07:54.315Z,4.07
2023-04-09T09:12:57.577Z,4.10
2023-04-09T09:18:01.033Z,3.65
2023-04-09T09:23:04.246Z,3.83
2023-04-09T09:28:09.311Z,3.90
2023-04-09T09:33:12.978Z,3.70
2023-04-09T09:38:16.625Z,3.90
2023-04-09T09:43:19.421Z,4.00
2023-04-09T09:48:22.616Z,3.30
2023-04-09T09:53:27.512Z,3.33
2023-04-09T09:58:41.017Z,3.45
2023-04-09T10:03:44.993Z,3.42
2023-04-09T10:08:50.279Z,3.45
2023-04-09T10:14:01.035Z,3.95
2023-04-09T10:19:04.144Z,3.70
2023-04-09T10:24:08.503Z,4.05
2023-04-09T10:29:14.874Z,3.83
2023-04-09T10:34:21.221Z,4.32
2023-04-09T10:39:34.177Z,3.70
2023-04-09T10:44:41.782Z,3.58
2023-04-09T10:49:44.896Z,3.60
2023-04-09T10:54:51.355Z,4.07
2023-04-09T10:59:55.702Z,4.28
2023-04-09T11:05:21.069Z,4.05
2023-04-09T11:10:24.166Z,4.10
2023-04-09T11:15:27.399Z,4.10
2023-04-09T11:25:35.774Z,3.40
2023-04-09T11:30:38.754Z,2.95
2023-04-09T11:35:41.699Z,3.40
2023-04-09T11:40:48.936Z,3.25
2023-04-09T11:45:52.962Z,3.53
2023-04-09T11:50:57.396Z,3.60
2023-04-09T11:56:00.849Z,3.50
2023-04-09T12:01:03.890Z,3.47
2023-04-09T12:11:15.388Z,3.30
2023-04-09T12:16:21.378Z,3.80
2023-04-09T12:21:27.764Z,3.60
2023-04-09T12:26:30.675Z,3.47
2023-04-09T12:31:54.051Z,3.60
2023-04-09T12:36:56.986Z,3.70
2023-04-09T12:41:59.848Z,4.20
2023-04-09T12:47:02.708Z,4.10
2023-04-09T12:52:26.146Z,3.60
2023-04-09T12:57:29.264Z,3.90
2023-04-09T13:02:32.170Z,3.70
2023-04-09T13:07:35.249Z,3.63
2023-04-09T13:12:49.128Z,3.40
2023-04-09T13:18:13.882Z,3.83
2023-04-09T13:23:22.476Z,3.50
2023-04-09T13:28:26.265Z,3.50
2023-04-09T13:33:49.013Z,3.40
2023-04-09T13:38:52.504Z,3.80
2023-04-09T13:49:35.658Z,3.60
2023-04-09T13:54:57.402Z,3.70
2023-04-09T14:00:20.130Z,3.92
2023-04-09T14:05:23.074Z,3.63
2023-04-09T14:10:25.823Z,3.58
2023-04-09T14:15:28.806Z,3.35
2023-04-09T14:20:31.848Z,3.92
2023-04-09T14:25:34.698Z,4.40
2023-04-09T14:30:37.592Z,4.18
2023-04-09T14:35:59.383Z,3.88
2023-04-09T14:41:02.281Z,4.05
2023-04-09T14:51:11.118Z,4.15
2023-04-09T14:56:14.593Z,3.65
2023-04-09T15:01:17.713Z,4.00
2023-04-09T15:06:20.963Z,3.88
2023-04-09T15:11:24.124Z,4.20
2023-04-09T15:16:28.858Z,4.47
2023-04-09T15:21:31.877Z,4.20
2023-04-09T15:26:35.065Z,4.30
2023-04-09T15:31:40.046Z,4.63
2023-04-09T15:36:45.581Z,4.75
2023-04-09T15:41:48.462Z,5.45
2023-04-09T15:46:51.543Z,5.35
2023-04-09T15:51:54.432Z,6.25
2023-04-09T15:56:57.836Z,6.20
2023-04-09T16:02:00.779Z,7.30
2023-04-09T16:07:04.439Z,6.50
2023-04-09T16:12:25.690Z,6.70
2023-04-09T16:17:28.768Z,6.07
2023-04-09T16:22:32.627Z,6.65
2023-04-09T16:27:35.416Z,6.25
2023-04-09T16:32:38.371Z,8.50
2023-04-09T16:37:41.446Z,9.80
2023-04-09T16:42:44.285Z,9.43
2023-04-09T16:48:11.622Z,10.40
2023-04-09T16:53:14.629Z,12.40
2023-04-09T16:58:17.978Z,10.95
2023-04-09T17:03:22.592Z,12.43
2023-04-09T17:08:25.563Z,13.50
2023-04-09T17:13:29.961Z,16.70
2023-04-09T17:18:34.826Z,17.95
2023-04-09T17:23:38.146Z,20.65
2023-04-09T17:28:42.450Z,16.58
2023-04-09T17:33:48.823Z,15.77
2023-04-09T17:38:56.757Z,15.73
2023-04-09T17:43:59.842Z,16.58
2023-04-09T17:49:02.828Z,16.17
2023-04-09T17:54:05.788Z,15.05
2023-04-09T17:59:09.020Z,12.63
2023-04-09T18:04:12.273Z,10.05
2023-04-09T18:09:15.861Z,10.32
2023-04-09T18:14:18.801Z,9.48
2023-04-09T18:19:21.853Z,9.15
2023-04-09T18:24:26.522Z,8.65
2023-04-09T18:29:29.979Z,8.98
2023-04-09T18:34:32.830Z,9.15
2023-04-09T18:39:36.542Z,9.18
2023-04-09T18:44:39.746Z,6.53
2023-04-09T18:49:42.692Z,9.05
2023-04-09T18:54:45.785Z,8.50
2023-04-09T18:59:48.854Z,8.52
2023-04-09T19:04:52.342Z,8.50
2023-04-09T19:09:55.281Z,8.68
2023-04-09T19:15:01.111Z,8.32
2023-04-09T19:20:04.757Z,7.35
2023-04-09T19:25:08.750Z,8.00
2023-04-09T19:30:12.545Z,8.57
2023-04-09T19:35:15.760Z,8.63
2023-04-09T19:40:21.144Z,8.35
2023-04-09T19:45:24.069Z,8.35
2023-04-09T19:50:27.532Z,7.43
2023-04-09T19:55:31.105Z,8.43
2023-04-09T20:00:34.945Z,8.57
2023-04-09T20:05:37.957Z,7.75
2023-04-09T20:10:42.961Z,8.82
2023-04-09T20:15:45.829Z,6.75
2023-04-09T20:20:48.745Z,6.18
2023-04-09T20:25:55.388Z,6.32
2023-04-09T20:30:58.346Z,7.35
2023-04-09T20:36:01.501Z,7.20
2023-04-09T20:41:04.552Z,7.65
2023-04-09T20:46:07.403Z,8.73
2023-04-09T20:51:11.331Z,7.28
2023-04-09T20:56:14.380Z,7.30
2023-04-09T21:01:36.370Z,6.90
2023-04-09T21:06:40.583Z,6.28
2023-04-09T21:11:43.533Z,5.80
2023-04-09T21:16:46.806Z,5.78
2023-04-09T21:21:50.049Z,7.00
2023-04-09T21:26:52.989Z,6.78
2023-04-09T21:31:56.026Z,6.75
2023-04-09T21:36:59.303Z,7.15
2023-04-09T21:42:03.003Z,6.97
2023-04-09T21:47:09.085Z,6.97
2023-04-09T21:52:15.158Z,6.40
2023-04-09T21:57:19.227Z,7.28
2023-04-09T22:02:22.874Z,5.50
2023-04-09T22:07:26.306Z,6.43
2023-04-09T22:12:29.054Z,6.00
2023-04-09T22:17:31.942Z,6.60
2023-04-09T22:22:34.729Z,7.28
2023-04-09T22:27:38.070Z,5.60
2023-04-09T22:32:41.225Z,7.88
2023-04-09T22:37:47.273Z,6.60
2023-04-09T22:42:51.114Z,6.15
2023-04-09T22:47:53.942Z,6.55
2023-04-09T22:52:56.991Z,5.43
2023-04-09T22:58:00.403Z,7.88
2023-04-09T23:03:03.844Z,6.35
2023-04-09T23:08:06.896Z,7.53
2023-04-09T23:13:14.114Z,6.65
2023-04-09T23:18:16.945Z,8.02
2023-04-09T23:23:39.328Z,7.47
2023-04-09T23:29:01.357Z,5.72
2023-04-09T23:34:04.394Z,8.02
2023-04-09T23:39:07.399Z,6.65
2023-04-09T23:44:10.428Z,8.20
2023-04-09T23:49:13.446Z,7.28
2023-04-09T23:54:16.618Z,7.85
2023-04-09T23:59:19.454Z,7.93
